Time;durP1;ratioP1;P1;durP2;ratioP2;P2;SDS_P1;SDS_P2;PMS_P1;PMS_P2;Temp;Humidity;BMP_temperature;BMP_pressure;BME280_temperature;BME280_humidity;BME280_pressure;Samples;Min_cycle;Max_cycle;Signal;HPM_P1;HPM_P2
2022/07/05 00:00:54;;;;;;;1.65;1.00;;;;;;;;;;4489363;28;20034;-69
2022/07/05 00:03:05;;;;;;;1.10;1.00;;;;;;;;;;4488624;28;20038;-66
2022/07/05 00:05:16;;;;;;;1.10;1.00;;;;;;;;;;4488935;28;20045;-67
2022/07/05 00:07:26;;;;;;;1.98;1.50;;;;;;;;;;4498801;28;20172;-67
2022/07/05 00:09:37;;;;;;;1.88;1.17;;;;;;;;;;4487823;28;20041;-67
2022/07/05 00:11:47;;;;;;;1.80;1.10;;;;;;;;;;4487738;28;20041;-69
2022/07/05 00:13:57;;;;;;;1.20;1.10;;;;;;;;;;4506638;28;20550;-67
2022/07/05 00:16:08;;;;;;;1.48;1.10;;;;;;;;;;4507042;28;20042;-67
2022/07/05 00:18:19;;;;;;;1.20;1.10;;;;;;;;;;4483753;28;20441;-67
2022/07/05 00:20:29;;;;;;;1.40;1.30;;;;;;;;;;4459203;28;20046;-69
2022/07/05 00:22:40;;;;;;;1.15;1.10;;;;;;;;;;4477980;28;20848;-69
2022/07/05 00:24:50;;;;;;;1.10;1.00;;;;;;;;;;4506940;28;20494;-69
2022/07/05 00:27:02;;;;;;;1.25;1.15;;;;;;;;;;4504988;28;20037;-67
2022/07/05 00:29:12;;;;;;;1.20;1.10;;;;;;;;;;4488008;28;20026;-67
2022/07/05 00:31:23;;;;;;;1.35;1.20;;;;;;;;;;4484669;28;20042;-67
2022/07/05 00:33:33;;;;;;;1.48;1.20;;;;;;;;;;4506186;28;20041;-67
2022/07/05 00:35:43;;;;;;;1.23;1.13;;;;;;;;;;4492055;28;20038;-69
2022/07/05 00:37:54;;;;;;;1.20;1.10;;;;;;;;;;4491759;28;20037;-67
2022/07/05 00:40:07;;;;;;;1.40;1.30;;;;;;;;;;4491760;28;20027;-67
2022/07/05 00:42:18;;;;;;;1.27;1.10;;;;;;;;;;4498393;28;20770;-67
2022/07/05 00:44:41;;;;;;;1.90;1.10;;;;;;;;;;4491533;28;20050;-67
2022/07/05 00:46:51;;;;;;;1.30;1.20;;;;;;;;;;4490627;28;20077;-67
2022/07/05 00:49:02;;;;;;;1.45;1.00;;;;;;;;;;4506524;28;20321;-67
2022/07/05 00:51:12;;;;;;;1.67;1.17;;;;;;;;;;4508162;28;20050;-67
2022/07/05 00:53:23;;;;;;;1.42;1.20;;;;;;;;;;4488377;28;20030;-67
2022/07/05 00:55:34;;;;;;;1.20;1.10;;;;;;;;;;4481518;28;20022;-66
2022/07/05 00:57:44;;;;;;;1.35;1.17;;;;;;;;;;4508378;28;20034;-67
2022/07/05 00:59:55;;;;;;;1.17;1.10;;;;;;;;;;4474986;28;20487;-67
2022/07/05 01:02:05;;;;;;;1.20;1.10;;;;;;;;;;4474603;28;20034;-67
2022/07/05 01:04:16;;;;;;;1.20;1.10;;;;;;;;;;4489725;28;20061;-67
2022/07/05 01:06:26;;;;;;;1.50;1.08;;;;;;;;;;4492117;28;20395;-67
2022/07/05 01:08:40;;;;;;;1.27;1.15;;;;;;;;;;4507355;28;20455;-67
2022/07/05 01:10:51;;;;;;;1.15;1.10;;;;;;;;;;4491539;28;20049;-67
2022/07/05 01:13:02;;;;;;;1.10;1.00;;;;;;;;;;4488069;28;20589;-67
2022/07/05 01:15:13;;;;;;;1.20;1.10;;;;;;;;;;4489327;28;20042;-67
2022/07/05 01:17:23;;;;;;;1.10;1.00;;;;;;;;;;4504589;28;20045;-67
2022/07/05 01:19:34;;;;;;;1.42;1.13;;;;;;;;;;4506595;28;20033;-67
2022/07/05 01:21:47;;;;;;;1.60;1.23;;;;;;;;;;4498004;28;20524;-67
2022/07/05 01:23:58;;;;;;;1.00;1.00;;;;;;;;;;4491659;28;20038;-67
2022/07/05 01:26:08;;;;;;;1.33;1.10;;;;;;;;;;4496804;28;20030;-67
2022/07/05 01:28:18;;;;;;;1.38;1.20;;;;;;;;;;4488670;28;20026;-67
2022/07/05 01:30:30;;;;;;;1.25;1.10;;;;;;;;;;4507211;28;20132;-67
2022/07/05 01:32:41;;;;;;;1.67;1.23;;;;;;;;;;4487674;28;20608;-67
2022/07/05 01:34:51;;;;;;;1.20;1.10;;;;;;;;;;4470875;28;20031;-67
2022/07/05 01:37:03;;;;;;;2.05;1.20;;;;;;;;;;4481284;28;20058;-67
2022/07/05 01:39:14;;;;;;;1.30;1.20;;;;;;;;;;4505263;28;21024;-67
2022/07/05 01:41:25;;;;;;;2.28;1.10;;;;;;;;;;4506296;28;20113;-67
2022/07/05 01:43:35;;;;;;;1.27;1.00;;;;;;;;;;4507369;28;20041;-67
2022/07/05 01:45:47;;;;;;;1.45;1.10;;;;;;;;;;4490670;28;20045;-67
2022/07/05 01:47:57;;;;;;;1.30;1.20;;;;;;;;;;4481574;28;20816;-67
2022/07/05 01:50:09;;;;;;;1.30;1.10;;;;;;;;;;4488901;28;20048;-68
2022/07/05 01:52:21;;;;;;;1.40;1.30;;;;;;;;;;4507329;28;20035;-67
2022/07/05 01:54:32;;;;;;;1.55;1.20;;;;;;;;;;4476884;28;20030;-67
2022/07/05 01:56:42;;;;;;;1.85;1.17;;;;;;;;;;4507308;28;20038;-67
2022/07/05 01:58:53;;;;;;;1.33;1.15;;;;;;;;;;4495866;28;20037;-67
2022/07/05 02:01:03;;;;;;;1.20;1.10;;;;;;;;;;4486123;28;20034;-67
2022/07/05 02:03:15;;;;;;;1.10;1.00;;;;;;;;;;4509766;28;20036;-67
2022/07/05 02:05:27;;;;;;;1.45;1.10;;;;;;;;;;4510379;28;20022;-67
2022/07/05 02:07:49;;;;;;;1.30;1.20;;;;;;;;;;4492125;28;20034;-67
2022/07/05 02:10:00;;;;;;;1.40;1.30;;;;;;;;;;4510978;28;20211;-67
2022/07/05 02:12:10;;;;;;;1.17;1.08;;;;;;;;;;4496645;28;20197;-67
2022/07/05 02:14:20;;;;;;;1.30;1.20;;;;;;;;;;4491246;28;20141;-68
2022/07/05 02:16:31;;;;;;;1.40;1.20;;;;;;;;;;4499994;28;20044;-67
2022/07/05 02:18:42;;;;;;;1.42;1.30;;;;;;;;;;4508669;28;20034;-67
2022/07/05 02:20:53;;;;;;;1.60;1.48;;;;;;;;;;4494091;28;20383;-67
2022/07/05 02:23:03;;;;;;;1.60;1.50;;;;;;;;;;4499902;28;24047;-67
2022/07/05 02:25:14;;;;;;;1.38;1.27;;;;;;;;;;4479667;28;20041;-68
2022/07/05 02:27:25;;;;;;;1.55;1.30;;;;;;;;;;4506952;28;20414;-67
2022/07/05 02:29:36;;;;;;;1.33;1.23;;;;;;;;;;4491241;28;20275;-67
2022/07/05 02:31:47;;;;;;;1.80;1.33;;;;;;;;;;4501229;28;20659;-68
2022/07/05 02:33:58;;;;;;;2.15;1.67;;;;;;;;;;4494930;28;20141;-67
2022/07/05 02:36:11;;;;;;;1.55;1.45;;;;;;;;;;4508059;28;20041;-67
2022/07/05 02:38:21;;;;;;;1.67;1.52;;;;;;;;;;4509519;28;21405;-67
2022/07/05 02:40:32;;;;;;;2.40;1.83;;;;;;;;;;4508711;28;20029;-68
2022/07/05 02:42:44;;;;;;;1.58;1.48;;;;;;;;;;4478215;28;20661;-68
2022/07/05 02:44:57;;;;;;;1.92;1.65;;;;;;;;;;4492477;28;20022;-68
2022/07/05 02:47:08;;;;;;;2.20;1.45;;;;;;;;;;4476649;28;20159;-68
2022/07/05 02:49:19;;;;;;;2.17;1.67;;;;;;;;;;4495818;28;20101;-67
2022/07/05 02:51:30;;;;;;;1.50;1.40;;;;;;;;;;4493896;28;20136;-67
2022/07/05 02:53:41;;;;;;;1.73;1.58;;;;;;;;;;4493959;28;20048;-68
2022/07/05 02:55:52;;;;;;;1.70;1.50;;;;;;;;;;4499450;28;20048;-67
2022/07/05 02:58:03;;;;;;;1.73;1.63;;;;;;;;;;4485683;28;20114;-67
2022/07/05 03:00:15;;;;;;;1.83;1.27;;;;;;;;;;4500220;28;20033;-68
2022/07/05 03:02:30;;;;;;;1.40;1.30;;;;;;;;;;4509209;28;20117;-67
2022/07/05 03:04:41;;;;;;;1.90;1.42;;;;;;;;;;4500403;28;20121;-68
2022/07/05 03:06:52;;;;;;;2.17;1.40;;;;;;;;;;4508589;28;20431;-67
2022/07/05 03:09:02;;;;;;;1.48;1.38;;;;;;;;;;4494764;28;20229;-67
2022/07/05 03:11:13;;;;;;;1.70;1.40;;;;;;;;;;4493267;28;20037;-67
2022/07/05 03:13:24;;;;;;;1.63;1.50;;;;;;;;;;4500340;28;20148;-67
2022/07/05 03:15:34;;;;;;;1.40;1.30;;;;;;;;;;4510333;28;20585;-68
2022/07/05 03:17:45;;;;;;;1.60;1.30;;;;;;;;;;4491976;28;20925;-67
2022/07/05 03:19:58;;;;;;;1.42;1.33;;;;;;;;;;4477731;28;20123;-67
2022/07/05 03:22:10;;;;;;;1.60;1.50;;;;;;;;;;4491334;28;20505;-68
2022/07/05 03:24:23;;;;;;;1.65;1.55;;;;;;;;;;4490747;28;20723;-68
2022/07/05 03:26:34;;;;;;;2.05;1.52;;;;;;;;;;4492872;28;20130;-67
2022/07/05 03:28:44;;;;;;;2.00;1.73;;;;;;;;;;4509056;28;20059;-67
2022/07/05 03:30:56;;;;;;;1.58;1.48;;;;;;;;;;4499983;28;20125;-68
2022/07/05 03:33:07;;;;;;;1.58;1.40;;;;;;;;;;4494073;28;20045;-67
2022/07/05 03:35:21;;;;;;;1.77;1.40;;;;;;;;;;4508131;28;20030;-67
2022/07/05 03:37:33;;;;;;;1.90;1.50;;;;;;;;;;4492949;28;20041;-68
2022/07/05 03:39:44;;;;;;;1.42;1.33;;;;;;;;;;4482967;28;20042;-67
2022/07/05 03:41:55;;;;;;;1.70;1.60;;;;;;;;;;4507865;28;20034;-68
2022/07/05 03:44:08;;;;;;;1.85;1.45;;;;;;;;;;4488274;28;20157;-67
2022/07/05 03:46:19;;;;;;;1.73;1.60;;;;;;;;;;4507897;28;20029;-67
2022/07/05 03:48:30;;;;;;;1.70;1.60;;;;;;;;;;4498922;28;20034;-67
2022/07/05 03:50:41;;;;;;;1.52;1.42;;;;;;;;;;4493571;28;20055;-67
2022/07/05 03:52:51;;;;;;;1.92;1.60;;;;;;;;;;4499161;28;20109;-68
2022/07/05 03:55:02;;;;;;;1.50;1.40;;;;;;;;;;4492347;28;20030;-68
2022/07/05 03:57:13;;;;;;;1.65;1.50;;;;;;;;;;4507425;28;20037;-70
2022/07/05 03:59:24;;;;;;;1.73;1.60;;;;;;;;;;4494034;28;20512;-69
2022/07/05 04:01:35;;;;;;;1.80;1.52;;;;;;;;;;4479286;28;20133;-69
2022/07/05 04:03:46;;;;;;;2.03;1.70;;;;;;;;;;4498592;28;20026;-68
2022/07/05 04:05:59;;;;;;;1.88;1.60;;;;;;;;;;4494393;28;20022;-68
2022/07/05 04:08:09;;;;;;;1.60;1.50;;;;;;;;;;4492438;28;20078;-67
2022/07/05 04:10:25;;;;;;;1.83;1.60;;;;;;;;;;4487070;28;20046;-67
2022/07/05 04:12:36;;;;;;;1.75;1.63;;;;;;;;;;4498536;28;20481;-67
2022/07/05 04:14:46;;;;;;;1.92;1.77;;;;;;;;;;4498358;28;20026;-67
2022/07/05 04:16:57;;;;;;;1.90;1.70;;;;;;;;;;4492758;28;20037;-67
2022/07/05 04:19:08;;;;;;;2.00;1.77;;;;;;;;;;4485136;28;20039;-67
2022/07/05 04:21:20;;;;;;;1.75;1.50;;;;;;;;;;4490804;28;20034;-67
2022/07/05 04:23:32;;;;;;;2.03;1.70;;;;;;;;;;4498427;28;20030;-66
2022/07/05 04:25:43;;;;;;;1.85;1.40;;;;;;;;;;4487321;28;20534;-66
2022/07/05 04:28:00;;;;;;;1.40;1.30;;;;;;;;;;4494136;28;20033;-67
2022/07/05 04:30:11;;;;;;;1.75;1.65;;;;;;;;;;4471421;28;20471;-67
2022/07/05 04:32:21;;;;;;;1.90;1.63;;;;;;;;;;4506723;28;20030;-67
2022/07/05 04:34:32;;;;;;;2.08;1.80;;;;;;;;;;4492980;28;20041;-67
2022/07/05 04:36:42;;;;;;;2.97;1.63;;;;;;;;;;4497840;28;20113;-67
2022/07/05 04:38:53;;;;;;;2.58;1.70;;;;;;;;;;4498352;28;21499;-67
2022/07/05 04:41:05;;;;;;;2.53;1.70;;;;;;;;;;4475621;28;20031;-67
2022/07/05 04:43:17;;;;;;;1.58;1.42;;;;;;;;;;4496406;28;20061;-68
2022/07/05 04:45:28;;;;;;;1.90;1.75;;;;;;;;;;4490616;28;20026;-67
2022/07/05 04:47:39;;;;;;;1.70;1.60;;;;;;;;;;4492767;28;20034;-67
2022/07/05 04:49:50;;;;;;;2.05;1.80;;;;;;;;;;4492076;28;20014;-67
2022/07/05 04:52:01;;;;;;;2.72;1.70;;;;;;;;;;4505837;28;20652;-67
2022/07/05 04:54:12;;;;;;;2.03;1.80;;;;;;;;;;4474850;28;20034;-67
2022/07/05 04:56:22;;;;;;;2.33;1.83;;;;;;;;;;4505471;28;20042;-67
2022/07/05 04:58:33;;;;;;;2.05;1.80;;;;;;;;;;4476607;28;20034;-67
2022/07/05 05:00:43;;;;;;;1.80;1.50;;;;;;;;;;4506038;28;20040;-67
2022/07/05 05:02:54;;;;;;;1.88;1.55;;;;;;;;;;4497508;28;20246;-67
2022/07/05 05:05:04;;;;;;;2.45;1.85;;;;;;;;;;4495690;28;20061;-67
2022/07/05 05:07:15;;;;;;;2.05;1.80;;;;;;;;;;4506182;28;20042;-67
2022/07/05 05:09:25;;;;;;;2.83;1.70;;;;;;;;;;4505985;28;20591;-67
2022/07/05 05:11:36;;;;;;;1.63;1.40;;;;;;;;;;4506236;28;20030;-66
2022/07/05 05:13:46;;;;;;;2.05;1.80;;;;;;;;;;4489158;28;20034;-67
2022/07/05 05:15:57;;;;;;;2.80;1.95;;;;;;;;;;4480893;28;20022;-67
2022/07/05 05:18:07;;;;;;;1.70;1.60;;;;;;;;;;4505510;28;20037;-67
2022/07/05 05:20:19;;;;;;;1.90;1.60;;;;;;;;;;4505022;28;20026;-67
2022/07/05 05:22:30;;;;;;;2.03;1.92;;;;;;;;;;4506282;28;20953;-67
2022/07/05 05:24:40;;;;;;;2.08;1.80;;;;;;;;;;4475571;28;20145;-67
2022/07/05 05:26:51;;;;;;;1.95;1.70;;;;;;;;;;4505211;28;20030;-67
2022/07/05 05:29:01;;;;;;;2.35;2.00;;;;;;;;;;4505649;28;20538;-67
2022/07/05 05:31:12;;;;;;;2.17;1.83;;;;;;;;;;4478119;28;20089;-67
2022/07/05 05:33:22;;;;;;;2.05;1.90;;;;;;;;;;4506765;28;20029;-66
2022/07/05 05:35:32;;;;;;;2.00;1.80;;;;;;;;;;4508049;28;20065;-67
2022/07/05 05:37:50;;;;;;;1.70;1.60;;;;;;;;;;4506044;28;20494;-67
2022/07/05 05:40:01;;;;;;;2.00;1.80;;;;;;;;;;4474723;28;20048;-67
2022/07/05 05:42:11;;;;;;;2.63;2.00;;;;;;;;;;4506203;28;20100;-67
2022/07/05 05:44:22;;;;;;;2.40;1.90;;;;;;;;;;4506490;28;20450;-66
2022/07/05 05:46:32;;;;;;;2.03;1.80;;;;;;;;;;4497544;28;20141;-67
2022/07/05 05:48:43;;;;;;;2.15;1.73;;;;;;;;;;4505891;28;20041;-66
2022/07/05 05:50:53;;;;;;;2.33;2.00;;;;;;;;;;4505741;28;20575;-66
2022/07/05 05:53:04;;;;;;;2.20;1.60;;;;;;;;;;4506243;28;20034;-67
2022/07/05 05:55:15;;;;;;;1.95;1.75;;;;;;;;;;4481093;28;20030;-68
2022/07/05 05:57:26;;;;;;;2.22;1.90;;;;;;;;;;4505247;28;20042;-68
2022/07/05 05:59:36;;;;;;;2.00;1.80;;;;;;;;;;4504654;28;20038;-68
2022/07/05 06:01:46;;;;;;;2.70;1.80;;;;;;;;;;4490195;28;20038;-68
2022/07/05 06:03:57;;;;;;;2.90;1.75;;;;;;;;;;4505959;28;20034;-68
2022/07/05 06:06:07;;;;;;;4.35;2.15;;;;;;;;;;4505732;28;20046;-68
2022/07/05 06:08:18;;;;;;;2.58;2.00;;;;;;;;;;4505999;28;20037;-68
2022/07/05 06:10:30;;;;;;;2.28;1.98;;;;;;;;;;4487828;28;20096;-68
2022/07/05 06:12:41;;;;;;;1.92;1.73;;;;;;;;;;4506127;28;20667;-68
2022/07/05 06:14:51;;;;;;;1.90;1.70;;;;;;;;;;4506542;28;20313;-67
2022/07/05 06:17:02;;;;;;;2.03;1.60;;;;;;;;;;4487012;28;20080;-68
2022/07/05 06:19:12;;;;;;;1.73;1.63;;;;;;;;;;4506182;28;20032;-68
2022/07/05 06:21:23;;;;;;;1.88;1.52;;;;;;;;;;4505399;28;20073;-67
2022/07/05 06:23:33;;;;;;;2.08;1.83;;;;;;;;;;4481598;28;20321;-67
2022/07/05 06:25:44;;;;;;;1.50;1.40;;;;;;;;;;4506423;28;20069;-67
2022/07/05 06:27:59;;;;;;;1.95;1.77;;;;;;;;;;4491398;28;20038;-68
2022/07/05 06:30:12;;;;;;;2.00;1.80;;;;;;;;;;4492493;28;20109;-68
2022/07/05 06:32:22;;;;;;;2.40;1.80;;;;;;;;;;4489139;28;20035;-67
2022/07/05 06:34:33;;;;;;;1.92;1.75;;;;;;;;;;4505382;28;20030;-68
2022/07/05 06:36:45;;;;;;;1.80;1.70;;;;;;;;;;4496854;28;20578;-67
2022/07/05 06:38:55;;;;;;;2.03;1.60;;;;;;;;;;4505792;28;20089;-68
2022/07/05 06:41:06;;;;;;;2.70;1.90;;;;;;;;;;4487460;28;20042;-67
2022/07/05 06:43:16;;;;;;;1.95;1.70;;;;;;;;;;4492498;28;20033;-67
2022/07/05 06:45:40;;;;;;;2.30;1.60;;;;;;;;;;4494214;28;20136;-66
2022/07/05 06:48:04;;;;;;;2.63;1.85;;;;;;;;;;4507505;28;20575;-66
2022/07/05 06:50:15;;;;;;;2.17;1.60;;;;;;;;;;4507244;28;20148;-67
2022/07/05 06:52:25;;;;;;;1.92;1.65;;;;;;;;;;4507714;28;20103;-67
2022/07/05 06:54:36;;;;;;;1.75;1.65;;;;;;;;;;4508191;28;20026;-67
2022/07/05 06:56:46;;;;;;;1.80;1.70;;;;;;;;;;4507612;28;20046;-67
2022/07/05 06:58:56;;;;;;;2.13;1.65;;;;;;;;;;4507678;28;20064;-67
2022/07/05 07:01:07;;;;;;;1.63;1.50;;;;;;;;;;4494685;28;20079;-66
2022/07/05 07:03:17;;;;;;;1.55;1.45;;;;;;;;;;4476433;28;20088;-66
2022/07/05 07:05:28;;;;;;;2.38;1.70;;;;;;;;;;4507710;28;20189;-67
2022/07/05 07:10:08;;;;;;;1.85;1.50;;;;;;;;;;4493832;28;20602;-67
2022/07/05 07:12:18;;;;;;;2.13;1.70;;;;;;;;;;4508766;28;20038;-68
2022/07/05 07:14:29;;;;;;;1.80;1.40;;;;;;;;;;4506922;28;20021;-67
2022/07/05 07:16:39;;;;;;;1.67;1.55;;;;;;;;;;4506980;28;20034;-67
2022/07/05 07:18:50;;;;;;;2.28;1.40;;;;;;;;;;4493011;28;20066;-67
2022/07/05 07:21:00;;;;;;;1.75;1.40;;;;;;;;;;4489323;28;20124;-66
2022/07/05 07:23:11;;;;;;;1.77;1.50;;;;;;;;;;4508898;28;20085;-66
2022/07/05 07:25:23;;;;;;;1.40;1.30;;;;;;;;;;4507067;28;21007;-68
2022/07/05 07:27:53;;;;;;;1.75;1.38;;;;;;;;;;4507947;28;20128;-66
2022/07/05 07:30:04;;;;;;;1.58;1.48;;;;;;;;;;4499188;28;20858;-66
2022/07/05 07:32:14;;;;;;;1.80;1.65;;;;;;;;;;4508012;28;20076;-67
2022/07/05 07:34:26;;;;;;;1.77;1.50;;;;;;;;;;4507983;28;20402;-67
2022/07/05 07:36:37;;;;;;;1.73;1.50;;;;;;;;;;4507607;28;20038;-67
2022/07/05 07:38:47;;;;;;;1.80;1.50;;;;;;;;;;4471922;28;20598;-67
2022/07/05 07:40:58;;;;;;;1.95;1.50;;;;;;;;;;4507860;28;20056;-67
2022/07/05 07:43:08;;;;;;;1.70;1.38;;;;;;;;;;4490169;28;20038;-67
2022/07/05 07:45:18;;;;;;;1.60;1.40;;;;;;;;;;4507346;28;20482;-67
2022/07/05 07:47:33;;;;;;;1.55;1.45;;;;;;;;;;4506732;28;20060;-67
2022/07/05 07:49:43;;;;;;;2.25;1.40;;;;;;;;;;4505851;28;20435;-67
2022/07/05 07:51:54;;;;;;;2.00;1.40;;;;;;;;;;4475722;28;20126;-67
2022/07/05 07:54:05;;;;;;;1.70;1.35;;;;;;;;;;4486317;28;20039;-67
2022/07/05 07:56:15;;;;;;;1.80;1.50;;;;;;;;;;4505894;28;20026;-67
2022/07/05 07:58:26;;;;;;;1.58;1.33;;;;;;;;;;4507106;28;20045;-66
2022/07/05 08:00:36;;;;;;;1.50;1.40;;;;;;;;;;4508224;28;20050;-66
2022/07/05 08:02:47;;;;;;;1.50;1.40;;;;;;;;;;4507656;28;20553;-67
2022/07/05 08:04:58;;;;;;;1.60;1.45;;;;;;;;;;4507551;28;20033;-67
2022/07/05 08:07:08;;;;;;;1.63;1.40;;;;;;;;;;4507715;28;20048;-67
2022/07/05 08:09:18;;;;;;;1.52;1.20;;;;;;;;;;4490934;28;20034;-67
2022/07/05 08:11:29;;;;;;;1.73;1.40;;;;;;;;;;4490212;28;20113;-67
2022/07/05 08:13:40;;;;;;;1.48;1.30;;;;;;;;;;4506460;28;20073;-67
2022/07/05 08:15:51;;;;;;;1.70;1.50;;;;;;;;;;4491122;28;20112;-67
2022/07/05 08:23:00;;;;;;;1.30;1.17;;;;;;;;;;4497908;28;20041;-67
2022/07/05 08:25:10;;;;;;;3.25;1.20;;;;;;;;;;4504402;28;20053;-66
2022/07/05 08:27:21;;;;;;;1.40;1.00;;;;;;;;;;4506281;28;20759;-67
2022/07/05 08:29:31;;;;;;;0.80;0.80;;;;;;;;;;4506589;28;20099;-66
2022/07/05 08:31:47;;;;;;;0.90;0.90;;;;;;;;;;4507711;28;20050;-67
2022/07/05 08:33:58;;;;;;;1.08;0.85;;;;;;;;;;4508238;28;20034;-67
2022/07/05 08:36:09;;;;;;;2.47;1.10;;;;;;;;;;4507923;28;20409;-67
2022/07/05 08:38:19;;;;;;;1.70;1.00;;;;;;;;;;4508039;28;20042;-67
2022/07/05 08:40:33;;;;;;;1.88;0.98;;;;;;;;;;4493197;28;20262;-66
2022/07/05 08:42:43;;;;;;;1.77;1.02;;;;;;;;;;4497734;28;20026;-66
2022/07/05 08:44:55;;;;;;;1.55;0.80;;;;;;;;;;4488683;28;20640;-67
2022/07/05 08:47:09;;;;;;;1.20;0.90;;;;;;;;;;4506561;28;20852;-67
2022/07/05 08:49:22;;;;;;;0.70;0.70;;;;;;;;;;4506584;28;20483;-67
2022/07/05 08:51:38;;;;;;;0.90;0.90;;;;;;;;;;4506231;28;20037;-67
2022/07/05 08:53:52;;;;;;;1.42;1.00;;;;;;;;;;4493466;28;20126;-67
2022/07/05 08:56:02;;;;;;;1.20;0.90;;;;;;;;;;4507341;28;20632;-67
2022/07/05 08:58:13;;;;;;;1.00;0.90;;;;;;;;;;4488537;28;20030;-67
2022/07/05 09:00:23;;;;;;;0.98;0.88;;;;;;;;;;4505680;28;20045;-68
2022/07/05 09:02:34;;;;;;;0.85;0.70;;;;;;;;;;4505802;28;20038;-67
2022/07/05 09:04:45;;;;;;;0.95;0.90;;;;;;;;;;4493261;28;20038;-68
2022/07/05 09:06:57;;;;;;;1.20;0.90;;;;;;;;;;4505300;28;20130;-68
2022/07/05 09:09:08;;;;;;;1.00;0.80;;;;;;;;;;4492429;28;20508;-68
2022/07/05 09:11:23;;;;;;;1.00;0.77;;;;;;;;;;4506455;28;20042;-68
2022/07/05 09:13:35;;;;;;;1.08;0.82;;;;;;;;;;4506434;28;20042;-68
2022/07/05 09:15:46;;;;;;;1.00;0.90;;;;;;;;;;4506413;28;20121;-67
2022/07/05 09:17:56;;;;;;;1.77;1.00;;;;;;;;;;4504281;28;21311;-67
2022/07/05 09:20:15;;;;;;;1.30;1.15;;;;;;;;;;4488283;28;20038;-68
2022/07/05 09:22:25;;;;;;;0.82;0.82;;;;;;;;;;4507336;28;20880;-68
2022/07/05 09:24:44;;;;;;;0.80;0.80;;;;;;;;;;4476263;28;20117;-67
2022/07/05 09:27:02;;;;;;;1.20;0.90;;;;;;;;;;4506249;28;20022;-67
2022/07/05 09:29:18;;;;;;;1.10;0.93;;;;;;;;;;4488751;28;20080;-67
2022/07/05 09:31:33;;;;;;;1.70;1.10;;;;;;;;;;4477460;28;20046;-68
2022/07/05 09:33:49;;;;;;;1.67;1.00;;;;;;;;;;4493102;28;21028;-67
2022/07/05 09:36:01;;;;;;;1.30;1.00;;;;;;;;;;4488237;28;20941;-70
2022/07/05 09:38:19;;;;;;;1.20;0.95;;;;;;;;;;4506062;28;20121;-66
2022/07/05 09:40:33;;;;;;;1.52;1.00;;;;;;;;;;4488594;28;20045;-66
2022/07/05 09:42:43;;;;;;;1.00;0.90;;;;;;;;;;4505978;28;20604;-67
2022/07/05 09:44:57;;;;;;;1.00;0.90;;;;;;;;;;4507457;28;20343;-66
2022/07/05 09:47:12;;;;;;;1.60;0.95;;;;;;;;;;4506754;28;20144;-65
2022/07/05 09:49:26;;;;;;;1.40;1.10;;;;;;;;;;4507605;28;20655;-68
2022/07/05 09:51:46;;;;;;;1.08;0.73;;;;;;;;;;4506283;28;20049;-67
2022/07/05 09:53:58;;;;;;;1.27;0.90;;;;;;;;;;4495719;28;20805;-67
2022/07/05 09:56:09;;;;;;;1.10;0.90;;;;;;;;;;4505608;28;20228;-66
2022/07/05 09:58:25;;;;;;;1.70;1.00;;;;;;;;;;4505835;28;20552;-67
2022/07/05 10:00:36;;;;;;;2.35;1.90;;;;;;;;;;4497976;28;20037;-67
2022/07/05 10:02:51;;;;;;;1.05;0.82;;;;;;;;;;4505414;28;20498;-68
2022/07/05 10:05:13;;;;;;;1.00;0.88;;;;;;;;;;4492572;28;20026;-67
2022/07/05 10:07:32;;;;;;;1.27;0.80;;;;;;;;;;4491472;28;20099;-68
2022/07/05 10:09:43;;;;;;;0.80;0.80;;;;;;;;;;4497869;28;20038;-67
2022/07/05 10:11:53;;;;;;;0.70;0.70;;;;;;;;;;4507014;28;20046;-68
2022/07/05 10:14:10;;;;;;;1.40;0.80;;;;;;;;;;4506531;28;20107;-67
2022/07/05 10:16:22;;;;;;;1.48;0.75;;;;;;;;;;4486366;28;20593;-68
2022/07/05 10:18:53;;;;;;;0.60;0.57;;;;;;;;;;4507917;28;20060;-66
2022/07/05 10:21:05;;;;;;;0.82;0.80;;;;;;;;;;4469721;28;20090;-68
2022/07/05 10:23:17;;;;;;;0.90;0.80;;;;;;;;;;4471137;28;20089;-69
2022/07/05 10:25:28;;;;;;;1.65;0.90;;;;;;;;;;4469873;28;20078;-69
2022/07/05 10:27:39;;;;;;;0.80;0.80;;;;;;;;;;4471120;28;20035;-69
2022/07/05 10:29:50;;;;;;;1.30;0.88;;;;;;;;;;4450863;28;20039;-69
2022/07/05 10:32:02;;;;;;;0.90;0.80;;;;;;;;;;4452880;28;20070;-69
2022/07/05 10:34:14;;;;;;;0.90;0.80;;;;;;;;;;4454220;28;20039;-69
2022/07/05 10:36:24;;;;;;;0.93;0.88;;;;;;;;;;4470117;28;20035;-68
2022/07/05 10:38:36;;;;;;;1.92;0.80;;;;;;;;;;4469679;28;20046;-67
2022/07/05 10:40:51;;;;;;;1.00;0.90;;;;;;;;;;4453305;28;20040;-67
2022/07/05 10:43:03;;;;;;;1.20;1.00;;;;;;;;;;4470826;28;21090;-67
2022/07/05 10:45:35;;;;;;;1.35;1.00;;;;;;;;;;4469756;28;20054;-67
2022/07/05 10:48:23;;;;;;;1.50;1.00;;;;;;;;;;4472741;28;20111;-67
2022/07/05 10:50:47;;;;;;;;;;;;;;;;;;4456027;28;20070;-67
2022/07/05 10:53:02;;;;;;;1.02;0.80;;;;;;;;;;4472377;28;19925;-68
2022/07/05 10:55:21;;;;;;;0.98;0.80;;;;;;;;;;4472289;28;20225;-67
2022/07/05 10:57:31;;;;;;;1.17;0.80;;;;;;;;;;4476856;28;20050;-67
2022/07/05 11:00:07;;;;;;;1.60;0.90;;;;;;;;;;4509217;28;20030;-67
2022/07/05 11:02:18;;;;;;;0.82;0.77;;;;;;;;;;4478209;28;20035;-68
2022/07/05 11:04:30;;;;;;;0.98;0.80;;;;;;;;;;4489480;28;20034;-67
2022/07/05 11:06:46;;;;;;;0.88;0.70;;;;;;;;;;4483717;28;20563;-67
2022/07/05 11:08:59;;;;;;;1.13;0.98;;;;;;;;;;4508410;28;20461;-68
2022/07/05 11:11:11;;;;;;;0.80;0.80;;;;;;;;;;4494487;28;20086;-68
2022/07/05 11:13:43;;;;;;;0.80;0.70;;;;;;;;;;4509830;28;20029;-67
2022/07/05 11:16:22;;;;;;;0.70;0.70;;;;;;;;;;4494870;28;20043;-67
2022/07/05 11:18:32;;;;;;;0.85;0.80;;;;;;;;;;4490548;28;20985;-67
2022/07/05 11:20:43;;;;;;;0.77;0.60;;;;;;;;;;4484423;28;20054;-68
2022/07/05 11:23:02;;;;;;;1.05;0.90;;;;;;;;;;4491681;28;20109;-67
2022/07/05 11:25:14;;;;;;;0.70;0.70;;;;;;;;;;4509023;28;20561;-67
2022/07/05 11:27:24;;;;;;;1.00;0.70;;;;;;;;;;4509855;28;20069;-68
2022/07/05 11:29:42;;;;;;;0.80;0.80;;;;;;;;;;4490679;28;20117;-67
2022/07/05 11:32:04;;;;;;;0.80;0.80;;;;;;;;;;4508490;28;20046;-68
2022/07/05 11:34:17;;;;;;;1.05;0.85;;;;;;;;;;4509419;28;20022;-67
2022/07/05 11:36:27;;;;;;;0.60;0.60;;;;;;;;;;4508375;28;20038;-67
2022/07/05 11:39:06;;;;;;;0.98;0.80;;;;;;;;;;4500395;28;20527;-67
2022/07/05 11:41:17;;;;;;;0.82;0.82;;;;;;;;;;4507870;28;20660;-68
2022/07/05 11:43:29;;;;;;;1.42;0.80;;;;;;;;;;4499108;28;20048;-67
2022/07/05 11:45:40;;;;;;;1.42;0.75;;;;;;;;;;4510522;28;20781;-66
2022/07/05 11:47:53;;;;;;;1.30;0.85;;;;;;;;;;4491832;28;20099;-66
2022/07/05 11:50:04;;;;;;;1.65;0.80;;;;;;;;;;4507709;28;20079;-66
2022/07/05 11:52:15;;;;;;;0.98;0.70;;;;;;;;;;4489905;28;20085;-65
2022/07/05 11:54:28;;;;;;;0.73;0.70;;;;;;;;;;4493353;28;20140;-66
2022/07/05 11:56:38;;;;;;;1.00;0.80;;;;;;;;;;4489572;28;20034;-66
2022/07/05 11:58:49;;;;;;;0.90;0.70;;;;;;;;;;4508708;28;20030;-67
2022/07/05 12:01:01;;;;;;;0.70;0.70;;;;;;;;;;4507941;28;20088;-66
2022/07/05 12:03:12;;;;;;;1.25;0.80;;;;;;;;;;4507552;28;20029;-65
2022/07/05 12:05:23;;;;;;;0.95;0.73;;;;;;;;;;4483859;28;20034;-65
2022/07/05 12:07:34;;;;;;;1.00;0.90;;;;;;;;;;4490574;28;20029;-65
2022/07/05 12:14:51;;;;;;;1.02;0.80;;;;;;;;;;4491618;28;20038;-60
2022/07/05 12:17:18;;;;;;;0.75;0.73;;;;;;;;;;4505891;28;20643;-62
2022/07/05 12:19:28;;;;;;;;;;;;;;;;;;4496579;28;20041;-63
2022/07/05 12:21:39;;;;;;;1.15;0.80;;;;;;;;;;4508201;28;19914;-64
2022/07/05 12:23:50;;;;;;;0.60;0.60;;;;;;;;;;4488560;28;20522;-62
2022/07/05 12:26:00;;;;;;;0.80;0.80;;;;;;;;;;4489483;28;20041;-64
2022/07/05 12:28:11;;;;;;;1.70;0.80;;;;;;;;;;4506786;28;20044;-63
2022/07/05 12:30:21;;;;;;;1.27;0.80;;;;;;;;;;4506038;28;20032;-65
2022/07/05 12:32:32;;;;;;;0.98;0.80;;;;;;;;;;4506994;28;20532;-68
2022/07/05 12:34:43;;;;;;;1.08;0.80;;;;;;;;;;4508263;28;20038;-70
2022/07/05 12:36:53;;;;;;;0.82;0.73;;;;;;;;;;4507811;28;20083;-69
2022/07/05 12:39:04;;;;;;;1.20;0.90;;;;;;;;;;4499948;28;20514;-70
2022/07/05 12:41:22;;;;;;;1.55;0.82;;;;;;;;;;4466384;28;20039;-69
2022/07/05 12:43:33;;;;;;;0.93;0.60;;;;;;;;;;4491653;28;20039;-70
2022/07/05 12:46:04;;;;;;;1.10;0.90;;;;;;;;;;4488992;28;20418;-69
2022/07/05 12:48:14;;;;;;;1.58;0.80;;;;;;;;;;4477565;28;20037;-70
2022/07/05 12:50:31;;;;;;;0.80;0.70;;;;;;;;;;4506816;28;20772;-69
2022/07/05 12:58:04;;;;;;;1.48;0.85;;;;;;;;;;4480249;28;20030;-69
2022/07/05 13:00:16;;;;;;;0.88;0.88;;;;;;;;;;4506345;28;20022;-70
2022/07/05 13:02:44;;;;;;;1.15;0.80;;;;;;;;;;4506353;28;20044;-69
2022/07/05 13:04:55;;;;;;;0.95;0.80;;;;;;;;;;4492707;28;20088;-69
2022/07/05 13:07:06;;;;;;;1.10;1.00;;;;;;;;;;4506224;28;20108;-69
2022/07/05 13:09:34;;;;;;;0.85;0.85;;;;;;;;;;4506791;28;20762;-69
2022/07/05 13:11:44;;;;;;;1.00;0.90;;;;;;;;;;4506088;28;20613;-70
2022/07/05 13:13:55;;;;;;;1.13;0.90;;;;;;;;;;4471605;28;20038;-70
2022/07/05 13:16:05;;;;;;;1.40;1.10;;;;;;;;;;4506811;28;20101;-68
2022/07/05 13:18:24;;;;;;;0.80;0.80;;;;;;;;;;4506302;28;20558;-69
2022/07/05 13:20:35;;;;;;;1.00;0.80;;;;;;;;;;4476576;28;20594;-68
2022/07/05 13:22:46;;;;;;;0.98;0.80;;;;;;;;;;4505939;28;20034;-69
2022/07/05 13:24:57;;;;;;;1.50;0.90;;;;;;;;;;4488297;28;20036;-69
2022/07/05 13:27:08;;;;;;;0.77;0.77;;;;;;;;;;4488646;28;20498;-71
2022/07/05 13:29:19;;;;;;;1.23;0.90;;;;;;;;;;4472392;28;20094;-69
2022/07/05 13:31:30;;;;;;;1.35;0.75;;;;;;;;;;4505156;28;20757;-71